sensor_id;sensor_type;location;lat;lon;timestamp;P1;durP1;ratioP1;P2;durP2;ratioP2
12348;SDS011;5974;42.710;27.258;2023-05-10T00:01:26;8.50;;;6.20;;
12348;SDS011;5974;42.710;27.258;2023-05-10T00:03:53;7.43;;;5.57;;
12348;SDS011;5974;42.710;27.258;2023-05-10T00:06:20;8.33;;;5.30;;
12348;SDS011;5974;42.710;27.258;2023-05-10T00:08:47;9.47;;;5.00;;
12348;SDS011;5974;42.710;27.258;2023-05-10T00:11:14;6.67;;;4.97;;
12348;SDS011;5974;42.710;27.258;2023-05-10T00:13:42;5.87;;;4.50;;
12348;SDS011;5974;42.710;27.258;2023-05-10T00:16:09;5.30;;;4.80;;
12348;SDS011;5974;42.710;27.258;2023-05-10T00:18:37;5.30;;;4.80;;
12348;SDS011;5974;42.710;27.258;2023-05-10T00:21:04;7.17;;;4.80;;
12348;SDS011;5974;42.710;27.258;2023-05-10T00:23:31;7.67;;;5.30;;
12348;SDS011;5974;42.710;27.258;2023-05-10T00:25:58;5.00;;;4.53;;
12348;SDS011;5974;42.710;27.258;2023-05-10T00:28:27;7.30;;;5.53;;
12348;SDS011;5974;42.710;27.258;2023-05-10T00:30:55;5.83;;;5.23;;
12348;SDS011;5974;42.710;27.258;2023-05-10T00:33:22;8.73;;;5.33;;
12348;SDS011;5974;42.710;27.258;2023-05-10T00:35:49;7.77;;;5.10;;
12348;SDS011;5974;42.710;27.258;2023-05-10T00:38:16;7.67;;;5.47;;
12348;SDS011;5974;42.710;27.258;2023-05-10T00:40:43;8.83;;;5.50;;
12348;SDS011;5974;42.710;27.258;2023-05-10T00:43:10;6.53;;;5.60;;
12348;SDS011;5974;42.710;27.258;2023-05-10T00:45:37;5.57;;;5.07;;
12348;SDS011;5974;42.710;27.258;2023-05-10T00:48:07;11.10;;;5.60;;
12348;SDS011;5974;42.710;27.258;2023-05-10T00:50:35;7.27;;;6.07;;
12348;SDS011;5974;42.710;27.258;2023-05-10T00:53:02;7.70;;;5.80;;
12348;SDS011;5974;42.710;27.258;2023-05-10T00:55:29;8.63;;;6.57;;
12348;SDS011;5974;42.710;27.258;2023-05-10T00:57:56;7.57;;;6.20;;
12348;SDS011;5974;42.710;27.258;2023-05-10T01:00:23;6.90;;;5.60;;
12348;SDS011;5974;42.710;27.258;2023-05-10T01:02:50;9.23;;;5.97;;
12348;SDS011;5974;42.710;27.258;2023-05-10T01:05:21;9.93;;;5.87;;
12348;SDS011;5974;42.710;27.258;2023-05-10T01:07:48;7.20;;;5.93;;
12348;SDS011;5974;42.710;27.258;2023-05-10T01:10:15;8.53;;;6.00;;
12348;SDS011;5974;42.710;27.258;2023-05-10T01:12:42;8.03;;;5.70;;
12348;SDS011;5974;42.710;27.258;2023-05-10T01:15:11;10.00;;;6.03;;
12348;SDS011;5974;42.710;27.258;2023-05-10T01:17:40;25.47;;;18.30;;
12348;SDS011;5974;42.710;27.258;2023-05-10T01:20:10;15.00;;;10.73;;
12348;SDS011;5974;42.710;27.258;2023-05-10T01:25:51;7.43;;;6.33;;
12348;SDS011;5974;42.710;27.258;2023-05-10T01:28:42;9.23;;;5.93;;
12348;SDS011;5974;42.710;27.258;2023-05-10T01:31:39;6.30;;;5.33;;
12348;SDS011;5974;42.710;27.258;2023-05-10T01:34:41;7.73;;;5.20;;
12348;SDS011;5974;42.710;27.258;2023-05-10T01:37:16;6.30;;;5.23;;
12348;SDS011;5974;42.710;27.258;2023-05-10T01:39:49;6.63;;;4.93;;
12348;SDS011;5974;42.710;27.258;2023-05-10T01:42:21;6.87;;;5.60;;
12348;SDS011;5974;42.710;27.258;2023-05-10T01:44:54;6.67;;;5.50;;
12348;SDS011;5974;42.710;27.258;2023-05-10T01:47:27;7.47;;;5.83;;
12348;SDS011;5974;42.710;27.258;2023-05-10T01:50:03;6.80;;;6.10;;
12348;SDS011;5974;42.710;27.258;2023-05-10T01:52:34;7.10;;;6.07;;
12348;SDS011;5974;42.710;27.258;2023-05-10T01:55:05;9.17;;;6.53;;
12348;SDS011;5974;42.710;27.258;2023-05-10T01:57:35;9.40;;;6.47;;
12348;SDS011;5974;42.710;27.258;2023-05-10T02:00:06;9.53;;;6.80;;
12348;SDS011;5974;42.710;27.258;2023-05-10T02:02:35;7.90;;;7.07;;
12348;SDS011;5974;42.710;27.258;2023-05-10T02:05:08;11.30;;;6.80;;
12348;SDS011;5974;42.710;27.258;2023-05-10T02:07:38;10.60;;;6.83;;
12348;SDS011;5974;42.710;27.258;2023-05-10T02:10:06;8.37;;;7.33;;
12348;SDS011;5974;42.710;27.258;2023-05-10T02:12:36;10.33;;;6.93;;
12348;SDS011;5974;42.710;27.258;2023-05-10T02:15:06;7.67;;;6.67;;
12348;SDS011;5974;42.710;27.258;2023-05-10T02:17:34;11.30;;;8.90;;
12348;SDS011;5974;42.710;27.258;2023-05-10T02:20:03;18.20;;;14.30;;
12348;SDS011;5974;42.710;27.258;2023-05-10T02:22:34;11.47;;;9.27;;
12348;SDS011;5974;42.710;27.258;2023-05-10T02:25:02;12.03;;;8.20;;
12348;SDS011;5974;42.710;27.258;2023-05-10T02:27:30;10.10;;;7.47;;
12348;SDS011;5974;42.710;27.258;2023-05-10T02:29:57;10.77;;;7.83;;
12348;SDS011;5974;42.710;27.258;2023-05-10T02:32:26;9.00;;;7.13;;
12348;SDS011;5974;42.710;27.258;2023-05-10T02:34:54;9.50;;;6.93;;
12348;SDS011;5974;42.710;27.258;2023-05-10T02:37:21;6.87;;;6.27;;
12348;SDS011;5974;42.710;27.258;2023-05-10T02:39:52;8.90;;;6.00;;
12348;SDS011;5974;42.710;27.258;2023-05-10T02:42:23;7.80;;;7.10;;
12348;SDS011;5974;42.710;27.258;2023-05-10T02:44:53;8.70;;;6.83;;
12348;SDS011;5974;42.710;27.258;2023-05-10T02:47:23;10.17;;;6.80;;
12348;SDS011;5974;42.710;27.258;2023-05-10T02:49:50;10.63;;;7.10;;
12348;SDS011;5974;42.710;27.258;2023-05-10T02:52:19;7.40;;;6.70;;
12348;SDS011;5974;42.710;27.258;2023-05-10T02:54:50;8.27;;;6.53;;
12348;SDS011;5974;42.710;27.258;2023-05-10T02:57:22;10.37;;;7.30;;
12348;SDS011;5974;42.710;27.258;2023-05-10T02:59:52;14.17;;;11.70;;
12348;SDS011;5974;42.710;27.258;2023-05-10T03:02:20;22.13;;;17.50;;
12348;SDS011;5974;42.710;27.258;2023-05-10T03:04:47;15.13;;;11.80;;
12348;SDS011;5974;42.710;27.258;2023-05-10T03:07:14;8.13;;;6.23;;
12348;SDS011;5974;42.710;27.258;2023-05-10T03:09:41;7.47;;;6.40;;
12348;SDS011;5974;42.710;27.258;2023-05-10T03:12:11;11.03;;;6.43;;
12348;SDS011;5974;42.710;27.258;2023-05-10T03:14:47;8.10;;;6.27;;
12348;SDS011;5974;42.710;27.258;2023-05-10T03:17:21;11.57;;;7.00;;
12348;SDS011;5974;42.710;27.258;2023-05-10T03:19:53;7.27;;;6.50;;
12348;SDS011;5974;42.710;27.258;2023-05-10T03:22:23;9.83;;;6.83;;
12348;SDS011;5974;42.710;27.258;2023-05-10T03:24:53;7.60;;;6.80;;
12348;SDS011;5974;42.710;27.258;2023-05-10T03:27:26;8.27;;;6.80;;
12348;SDS011;5974;42.710;27.258;2023-05-10T03:29:54;8.03;;;6.57;;
12348;SDS011;5974;42.710;27.258;2023-05-10T03:32:22;9.93;;;7.10;;
12348;SDS011;5974;42.710;27.258;2023-05-10T03:34:49;9.33;;;7.00;;
12348;SDS011;5974;42.710;27.258;2023-05-10T03:37:16;7.10;;;6.40;;
12348;SDS011;5974;42.710;27.258;2023-05-10T03:39:42;9.70;;;7.47;;
12348;SDS011;5974;42.710;27.258;2023-05-10T03:42:09;8.27;;;7.30;;
12348;SDS011;5974;42.710;27.258;2023-05-10T03:44:39;8.53;;;6.47;;
12348;SDS011;5974;42.710;27.258;2023-05-10T03:47:06;6.87;;;6.20;;
12348;SDS011;5974;42.710;27.258;2023-05-10T03:49:33;8.20;;;5.73;;
12348;SDS011;5974;42.710;27.258;2023-05-10T03:51:59;9.30;;;5.87;;
12348;SDS011;5974;42.710;27.258;2023-05-10T03:54:26;7.47;;;5.97;;
12348;SDS011;5974;42.710;27.258;2023-05-10T03:56:53;7.57;;;6.10;;
12348;SDS011;5974;42.710;27.258;2023-05-10T03:59:20;7.87;;;6.17;;
12348;SDS011;5974;42.710;27.258;2023-05-10T04:01:48;6.90;;;6.20;;
12348;SDS011;5974;42.710;27.258;2023-05-10T04:04:15;8.80;;;6.27;;
12348;SDS011;5974;42.710;27.258;2023-05-10T04:06:43;6.87;;;5.70;;
12348;SDS011;5974;42.710;27.258;2023-05-10T04:09:10;6.37;;;5.77;;
12348;SDS011;5974;42.710;27.258;2023-05-10T04:11:37;6.70;;;5.60;;
12348;SDS011;5974;42.710;27.258;2023-05-10T04:14:04;5.70;;;5.20;;
12348;SDS011;5974;42.710;27.258;2023-05-10T04:16:31;6.90;;;5.10;;
12348;SDS011;5974;42.710;27.258;2023-05-10T04:18:59;7.47;;;4.63;;
12348;SDS011;5974;42.710;27.258;2023-05-10T04:21:26;4.80;;;4.40;;
12348;SDS011;5974;42.710;27.258;2023-05-10T04:23:53;4.80;;;3.90;;
12348;SDS011;5974;42.710;27.258;2023-05-10T04:26:20;6.10;;;3.93;;
12348;SDS011;5974;42.710;27.258;2023-05-10T04:28:47;5.40;;;3.40;;
12348;SDS011;5974;42.710;27.258;2023-05-10T04:31:14;4.60;;;3.70;;
12348;SDS011;5974;42.710;27.258;2023-05-10T04:33:41;5.30;;;3.80;;
12348;SDS011;5974;42.710;27.258;2023-05-10T04:36:09;5.27;;;4.00;;
12348;SDS011;5974;42.710;27.258;2023-05-10T04:38:36;5.17;;;3.67;;
12348;SDS011;5974;42.710;27.258;2023-05-10T04:41:03;7.03;;;3.77;;
12348;SDS011;5974;42.710;27.258;2023-05-10T04:43:31;3.50;;;3.30;;
12348;SDS011;5974;42.710;27.258;2023-05-10T04:45:58;3.93;;;3.53;;
12348;SDS011;5974;42.710;27.258;2023-05-10T04:48:25;4.83;;;3.60;;
12348;SDS011;5974;42.710;27.258;2023-05-10T04:50:52;3.87;;;3.57;;
12348;SDS011;5974;42.710;27.258;2023-05-10T04:53:20;6.93;;;3.67;;
12348;SDS011;5974;42.710;27.258;2023-05-10T04:55:47;5.83;;;3.47;;
12348;SDS011;5974;42.710;27.258;2023-05-10T04:58:14;5.20;;;3.77;;
12348;SDS011;5974;42.710;27.258;2023-05-10T05:00:41;3.90;;;3.50;;
12348;SDS011;5974;42.710;27.258;2023-05-10T05:03:08;4.13;;;3.73;;
12348;SDS011;5974;42.710;27.258;2023-05-10T05:05:35;5.30;;;3.90;;
12348;SDS011;5974;42.710;27.258;2023-05-10T05:08:02;5.23;;;3.53;;
12348;SDS011;5974;42.710;27.258;2023-05-10T05:10:30;3.40;;;3.10;;
12348;SDS011;5974;42.710;27.258;2023-05-10T05:12:57;3.53;;;3.23;;
12348;SDS011;5974;42.710;27.258;2023-05-10T05:15:24;3.60;;;3.30;;
12348;SDS011;5974;42.710;27.258;2023-05-10T05:17:51;3.60;;;3.23;;
12348;SDS011;5974;42.710;27.258;2023-05-10T05:20:18;3.47;;;3.17;;
12348;SDS011;5974;42.710;27.258;2023-05-10T05:22:45;4.07;;;3.33;;
12348;SDS011;5974;42.710;27.258;2023-05-10T05:25:12;4.93;;;3.77;;
12348;SDS011;5974;42.710;27.258;2023-05-10T05:27:41;3.77;;;3.37;;
12348;SDS011;5974;42.710;27.258;2023-05-10T05:30:08;7.70;;;6.17;;
12348;SDS011;5974;42.710;27.258;2023-05-10T05:32:36;4.03;;;3.60;;
12348;SDS011;5974;42.710;27.258;2023-05-10T05:35:03;7.10;;;5.33;;
12348;SDS011;5974;42.710;27.258;2023-05-10T05:37:30;3.80;;;3.50;;
12348;SDS011;5974;42.710;27.258;2023-05-10T05:39:57;4.87;;;4.47;;
12348;SDS011;5974;42.710;27.258;2023-05-10T05:42:26;6.60;;;4.47;;
12348;SDS011;5974;42.710;27.258;2023-05-10T05:44:55;3.83;;;3.57;;
12348;SDS011;5974;42.710;27.258;2023-05-10T05:47:21;5.30;;;3.40;;
12348;SDS011;5974;42.710;27.258;2023-05-10T05:49:48;3.53;;;3.20;;
12348;SDS011;5974;42.710;27.258;2023-05-10T05:52:15;4.10;;;3.30;;
12348;SDS011;5974;42.710;27.258;2023-05-10T05:54:42;15.90;;;10.37;;
12348;SDS011;5974;42.710;27.258;2023-05-10T05:57:09;8.27;;;4.40;;
12348;SDS011;5974;42.710;27.258;2023-05-10T05:59:36;3.90;;;3.23;;
12348;SDS011;5974;42.710;27.258;2023-05-10T06:02:08;6.20;;;2.80;;
12348;SDS011;5974;42.710;27.258;2023-05-10T06:04:35;3.23;;;2.43;;
12348;SDS011;5974;42.710;27.258;2023-05-10T06:07:02;3.03;;;2.40;;
12348;SDS011;5974;42.710;27.258;2023-05-10T06:09:28;2.27;;;2.10;;
12348;SDS011;5974;42.710;27.258;2023-05-10T06:11:55;3.83;;;2.23;;
12348;SDS011;5974;42.710;27.258;2023-05-10T06:14:22;2.13;;;2.03;;
12348;SDS011;5974;42.710;27.258;2023-05-10T06:16:49;2.70;;;1.83;;
12348;SDS011;5974;42.710;27.258;2023-05-10T06:19:17;2.03;;;1.93;;
12348;SDS011;5974;42.710;27.258;2023-05-10T06:21:44;3.00;;;2.33;;
12348;SDS011;5974;42.710;27.258;2023-05-10T06:24:11;4.17;;;2.40;;
12348;SDS011;5974;42.710;27.258;2023-05-10T06:26:38;1.73;;;1.63;;
12348;SDS011;5974;42.710;27.258;2023-05-10T06:29:05;6.23;;;5.23;;
12348;SDS011;5974;42.710;27.258;2023-05-10T06:31:32;1.80;;;1.40;;
12348;SDS011;5974;42.710;27.258;2023-05-10T06:33:59;1.73;;;1.60;;
12348;SDS011;5974;42.710;27.258;2023-05-10T06:36:27;3.43;;;1.70;;
12348;SDS011;5974;42.710;27.258;2023-05-10T06:38:54;1.70;;;1.60;;
12348;SDS011;5974;42.710;27.258;2023-05-10T06:41:21;4.20;;;1.77;;
12348;SDS011;5974;42.710;27.258;2023-05-10T06:43:48;3.03;;;2.10;;
12348;SDS011;5974;42.710;27.258;2023-05-10T06:46:15;2.67;;;1.60;;
12348;SDS011;5974;42.710;27.258;2023-05-10T06:48:42;1.93;;;1.83;;
12348;SDS011;5974;42.710;27.258;2023-05-10T06:51:09;2.23;;;2.00;;
12348;SDS011;5974;42.710;27.258;2023-05-10T06:53:38;4.60;;;2.93;;
12348;SDS011;5974;42.710;27.258;2023-05-10T06:56:05;2.10;;;2.00;;
12348;SDS011;5974;42.710;27.258;2023-05-10T06:58:32;2.33;;;2.13;;
12348;SDS011;5974;42.710;27.258;2023-05-10T07:01:02;3.90;;;1.80;;
12348;SDS011;5974;42.710;27.258;2023-05-10T07:03:30;1.80;;;1.70;;
12348;SDS011;5974;42.710;27.258;2023-05-10T07:06:00;1.97;;;1.53;;
12348;SDS011;5974;42.710;27.258;2023-05-10T07:08:29;2.40;;;2.20;;
12348;SDS011;5974;42.710;27.258;2023-05-10T07:11:09;4.43;;;2.03;;
12348;SDS011;5974;42.710;27.258;2023-05-10T07:13:36;2.03;;;1.83;;
12348;SDS011;5974;42.710;27.258;2023-05-10T07:16:06;2.53;;;1.87;;
12348;SDS011;5974;42.710;27.258;2023-05-10T07:18:33;4.10;;;3.70;;
12348;SDS011;5974;42.710;27.258;2023-05-10T07:21:00;1.93;;;1.70;;
12348;SDS011;5974;42.710;27.258;2023-05-10T07:23:27;2.10;;;1.90;;
12348;SDS011;5974;42.710;27.258;2023-05-10T07:25:54;2.27;;;1.97;;
12348;SDS011;5974;42.710;27.258;2023-05-10T07:28:23;5.60;;;3.77;;
12348;SDS011;5974;42.710;27.258;2023-05-10T07:30:51;2.10;;;2.00;;
12348;SDS011;5974;42.710;27.258;2023-05-10T07:33:17;2.60;;;2.10;;
12348;SDS011;5974;42.710;27.258;2023-05-10T07:35:44;2.17;;;2.00;;
12348;SDS011;5974;42.710;27.258;2023-05-10T07:38:11;6.90;;;6.30;;
12348;SDS011;5974;42.710;27.258;2023-05-10T07:40:40;4.10;;;2.63;;
12348;SDS011;5974;42.710;27.258;2023-05-10T07:43:06;3.10;;;2.00;;
12348;SDS011;5974;42.710;27.258;2023-05-10T07:45:35;2.10;;;2.00;;
12348;SDS011;5974;42.710;27.258;2023-05-10T07:48:02;4.37;;;2.10;;
12348;SDS011;5974;42.710;27.258;2023-05-10T07:50:29;2.00;;;1.90;;
12348;SDS011;5974;42.710;27.258;2023-05-10T07:52:56;4.77;;;2.37;;
12348;SDS011;5974;42.710;27.258;2023-05-10T07:55:23;3.07;;;2.10;;
12348;SDS011;5974;42.710;27.258;2023-05-10T07:57:50;2.20;;;2.10;;
12348;SDS011;5974;42.710;27.258;2023-05-10T08:00:17;23.00;;;16.67;;
12348;SDS011;5974;42.710;27.258;2023-05-10T08:02:46;20.80;;;13.27;;
12348;SDS011;5974;42.710;27.258;2023-05-10T08:05:14;8.57;;;5.77;;
12348;SDS011;5974;42.710;27.258;2023-05-10T08:07:40;4.93;;;3.07;;
12348;SDS011;5974;42.710;27.258;2023-05-10T08:10:08;9.67;;;6.83;;
12348;SDS011;5974;42.710;27.258;2023-05-10T08:12:36;6.37;;;4.73;;
12348;SDS011;5974;42.710;27.258;2023-05-10T08:15:03;2.73;;;2.53;;
12348;SDS011;5974;42.710;27.258;2023-05-10T08:17:30;4.27;;;3.27;;
12348;SDS011;5974;42.710;27.258;2023-05-10T08:19:59;2.30;;;2.10;;
12348;SDS011;5974;42.710;27.258;2023-05-10T08:22:25;4.63;;;4.00;;
12348;SDS011;5974;42.710;27.258;2023-05-10T08:24:52;2.70;;;2.50;;
12348;SDS011;5974;42.710;27.258;2023-05-10T08:27:19;3.13;;;2.23;;
12348;SDS011;5974;42.710;27.258;2023-05-10T08:29:46;2.23;;;1.90;;
12348;SDS011;5974;42.710;27.258;2023-05-10T08:32:13;4.13;;;2.47;;
12348;SDS011;5974;42.710;27.258;2023-05-10T08:34:39;7.20;;;4.93;;
12348;SDS011;5974;42.710;27.258;2023-05-10T08:37:08;5.27;;;4.20;;
12348;SDS011;5974;42.710;27.258;2023-05-10T08:39:38;3.57;;;2.70;;
12348;SDS011;5974;42.710;27.258;2023-05-10T08:42:06;1.60;;;1.50;;
12348;SDS011;5974;42.710;27.258;2023-05-10T08:44:35;2.30;;;1.77;;
12348;SDS011;5974;42.710;27.258;2023-05-10T08:47:04;2.00;;;1.90;;
12348;SDS011;5974;42.710;27.258;2023-05-10T08:49:32;2.03;;;1.90;;
12348;SDS011;5974;42.710;27.258;2023-05-10T08:52:02;1.83;;;1.73;;
12348;SDS011;5974;42.710;27.258;2023-05-10T08:54:32;1.90;;;1.80;;
12348;SDS011;5974;42.710;27.258;2023-05-10T08:56:59;1.90;;;1.80;;
12348;SDS011;5974;42.710;27.258;2023-05-10T08:59:27;2.47;;;1.77;;
12348;SDS011;5974;42.710;27.258;2023-05-10T09:01:56;2.70;;;1.80;;
12348;SDS011;5974;42.710;27.258;2023-05-10T09:04:24;2.20;;;2.00;;
12348;SDS011;5974;42.710;27.258;2023-05-10T09:06:51;3.37;;;1.70;;
12348;SDS011;5974;42.710;27.258;2023-05-10T09:09:18;2.13;;;1.20;;
12348;SDS011;5974;42.710;27.258;2023-05-10T09:11:48;1.97;;;1.70;;
12348;SDS011;5974;42.710;27.258;2023-05-10T09:14:15;2.23;;;1.30;;
12348;SDS011;5974;42.710;27.258;2023-05-10T09:16:43;4.30;;;1.50;;
12348;SDS011;5974;42.710;27.258;2023-05-10T09:19:10;2.87;;;1.60;;
12348;SDS011;5974;42.710;27.258;2023-05-10T09:21:37;2.23;;;1.77;;
12348;SDS011;5974;42.710;27.258;2023-05-10T09:24:04;2.07;;;1.50;;
12348;SDS011;5974;42.710;27.258;2023-05-10T09:26:32;2.93;;;2.47;;
12348;SDS011;5974;42.710;27.258;2023-05-10T09:29:02;2.40;;;1.47;;
12348;SDS011;5974;42.710;27.258;2023-05-10T09:31:46;3.23;;;2.93;;
12348;SDS011;5974;42.710;27.258;2023-05-10T09:34:16;2.50;;;1.80;;
12348;SDS011;5974;42.710;27.258;2023-05-10T09:36:51;2.30;;;1.90;;
12348;SDS011;5974;42.710;27.258;2023-05-10T09:39:29;1.70;;;1.60;;
12348;SDS011;5974;42.710;27.258;2023-05-10T09:41:57;1.90;;;1.80;;
12348;SDS011;5974;42.710;27.258;2023-05-10T09:44:26;3.03;;;2.43;;
12348;SDS011;5974;42.710;27.258;2023-05-10T09:46:53;2.87;;;2.60;;
12348;SDS011;5974;42.710;27.258;2023-05-10T09:49:20;4.17;;;2.47;;
12348;SDS011;5974;42.710;27.258;2023-05-10T09:51:47;2.60;;;2.23;;
12348;SDS011;5974;42.710;27.258;2023-05-10T09:54:26;2.07;;;1.83;;
12348;SDS011;5974;42.710;27.258;2023-05-10T09:56:53;4.27;;;3.13;;
12348;SDS011;5974;42.710;27.258;2023-05-10T09:59:20;4.27;;;2.93;;
12348;SDS011;5974;42.710;27.258;2023-05-10T10:01:50;17.07;;;10.90;;
12348;SDS011;5974;42.710;27.258;2023-05-10T10:04:18;4.07;;;3.73;;
12348;SDS011;5974;42.710;27.258;2023-05-10T10:06:46;2.10;;;1.90;;
12348;SDS011;5974;42.710;27.258;2023-05-10T10:09:25;1.97;;;1.83;;
12348;SDS011;5974;42.710;27.258;2023-05-10T10:11:53;2.43;;;1.90;;
12348;SDS011;5974;42.710;27.258;2023-05-10T10:14:21;2.77;;;1.93;;
12348;SDS011;5974;42.710;27.258;2023-05-10T10:16:50;3.13;;;2.00;;
12348;SDS011;5974;42.710;27.258;2023-05-10T10:19:17;2.07;;;1.80;;
12348;SDS011;5974;42.710;27.258;2023-05-10T10:21:44;2.80;;;1.67;;
12348;SDS011;5974;42.710;27.258;2023-05-10T10:24:11;1.87;;;1.77;;
12348;SDS011;5974;42.710;27.258;2023-05-10T10:26:38;1.93;;;1.80;;
12348;SDS011;5974;42.710;27.258;2023-05-10T10:29:10;3.93;;;2.80;;
12348;SDS011;5974;42.710;27.258;2023-05-10T10:31:45;2.20;;;1.93;;
12348;SDS011;5974;42.710;27.258;2023-05-10T10:34:21;2.30;;;1.87;;
12348;SDS011;5974;42.710;27.258;2023-05-10T10:36:52;2.80;;;2.20;;
12348;SDS011;5974;42.710;27.258;2023-05-10T10:39:20;1.70;;;1.60;;
12348;SDS011;5974;42.710;27.258;2023-05-10T10:41:51;1.90;;;1.80;;
12348;SDS011;5974;42.710;27.258;2023-05-10T10:44:22;2.17;;;1.80;;
12348;SDS011;5974;42.710;27.258;2023-05-10T10:47:03;2.07;;;1.80;;
12348;SDS011;5974;42.710;27.258;2023-05-10T10:49:37;2.60;;;1.70;;
12348;SDS011;5974;42.710;27.258;2023-05-10T10:54:59;1.90;;;1.80;;
12348;SDS011;5974;42.710;27.258;2023-05-10T10:57:28;1.70;;;1.60;;
12348;SDS011;5974;42.710;27.258;2023-05-10T11:02:53;7.70;;;4.10;;
12348;SDS011;5974;42.710;27.258;2023-05-10T11:08:11;4.63;;;3.67;;
12348;SDS011;5974;42.710;27.258;2023-05-10T11:10:40;1.90;;;1.80;;
12348;SDS011;5974;42.710;27.258;2023-05-10T11:13:17;2.10;;;1.90;;
12348;SDS011;5974;42.710;27.258;2023-05-10T11:15:54;3.13;;;1.90;;
12348;SDS011;5974;42.710;27.258;2023-05-10T11:18:23;2.20;;;1.80;;
12348;SDS011;5974;42.710;27.258;2023-05-10T11:20:55;2.43;;;2.00;;
12348;SDS011;5974;42.710;27.258;2023-05-10T11:23:24;2.60;;;2.23;;
12348;SDS011;5974;42.710;27.258;2023-05-10T11:25:56;3.90;;;2.00;;
12348;SDS011;5974;42.710;27.258;2023-05-10T11:28:25;4.23;;;2.00;;
12348;SDS011;5974;42.710;27.258;2023-05-10T11:30:53;1.90;;;1.80;;
12348;SDS011;5974;42.710;27.258;2023-05-10T11:33:20;1.87;;;1.77;;
12348;SDS011;5974;42.710;27.258;2023-05-10T11:35:47;5.90;;;1.80;;
12348;SDS011;5974;42.710;27.258;2023-05-10T11:38:16;2.00;;;1.40;;
12348;SDS011;5974;42.710;27.258;2023-05-10T11:40:42;2.30;;;1.80;;
12348;SDS011;5974;42.710;27.258;2023-05-10T11:43:09;4.97;;;2.20;;
12348;SDS011;5974;42.710;27.258;2023-05-10T11:45:37;2.00;;;1.90;;
12348;SDS011;5974;42.710;27.258;2023-05-10T11:48:04;1.60;;;1.50;;
12348;SDS011;5974;42.710;27.258;2023-05-10T11:50:31;2.57;;;1.97;;
12348;SDS011;5974;42.710;27.258;2023-05-10T11:52:58;3.83;;;1.80;;
12348;SDS011;5974;42.710;27.258;2023-05-10T11:55:27;4.40;;;1.93;;
12348;SDS011;5974;42.710;27.258;2023-05-10T11:57:55;1.87;;;1.70;;
12348;SDS011;5974;42.710;27.258;2023-05-10T12:00:27;3.53;;;1.90;;
12348;SDS011;5974;42.710;27.258;2023-05-10T12:02:55;2.60;;;1.90;;
12348;SDS011;5974;42.710;27.258;2023-05-10T12:05:22;2.10;;;1.83;;
12348;SDS011;5974;42.710;27.258;2023-05-10T12:07:49;2.37;;;2.20;;
12348;SDS011;5974;42.710;27.258;2023-05-10T12:10:16;1.93;;;1.70;;
12348;SDS011;5974;42.710;27.258;2023-05-10T12:12:52;3.00;;;2.00;;
12348;SDS011;5974;42.710;27.258;2023-05-10T12:15:19;4.30;;;1.90;;
12348;SDS011;5974;42.710;27.258;2023-05-10T12:17:47;2.00;;;1.60;;
12348;SDS011;5974;42.710;27.258;2023-05-10T12:20:18;1.93;;;1.73;;
12348;SDS011;5974;42.710;27.258;2023-05-10T12:22:47;1.83;;;1.60;;
12348;SDS011;5974;42.710;27.258;2023-05-10T12:25:16;1.63;;;1.53;;
12348;SDS011;5974;42.710;27.258;2023-05-10T12:27:52;2.07;;;1.77;;
12348;SDS011;5974;42.710;27.258;2023-05-10T12:30:20;5.60;;;1.70;;
12348;SDS011;5974;42.710;27.258;2023-05-10T12:32:48;2.70;;;1.90;;
12348;SDS011;5974;42.710;27.258;2023-05-10T12:35:15;3.60;;;1.80;;
12348;SDS011;5974;42.710;27.258;2023-05-10T12:37:45;3.90;;;1.87;;
12348;SDS011;5974;42.710;27.258;2023-05-10T12:40:12;5.20;;;1.93;;
12348;SDS011;5974;42.710;27.258;2023-05-10T12:42:39;2.10;;;1.90;;
12348;SDS011;5974;42.710;27.258;2023-05-10T12:45:08;3.97;;;1.60;;
12348;SDS011;5974;42.710;27.258;2023-05-10T12:47:35;2.07;;;1.70;;
12348;SDS011;5974;42.710;27.258;2023-05-10T12:50:02;1.67;;;1.57;;
12348;SDS011;5974;42.710;27.258;2023-05-10T12:52:30;3.90;;;1.83;;
12348;SDS011;5974;42.710;27.258;2023-05-10T12:54:58;2.40;;;1.63;;
12348;SDS011;5974;42.710;27.258;2023-05-10T12:57:25;1.83;;;1.70;;
12348;SDS011;5974;42.710;27.258;2023-05-10T12:59:52;2.27;;;1.70;;
12348;SDS011;5974;42.710;27.258;2023-05-10T13:02:21;2.10;;;1.70;;
12348;SDS011;5974;42.710;27.258;2023-05-10T13:04:48;2.03;;;1.70;;
12348;SDS011;5974;42.710;27.258;2023-05-10T13:07:16;4.13;;;1.93;;
12348;SDS011;5974;42.710;27.258;2023-05-10T13:09:42;3.07;;;1.67;;
12348;SDS011;5974;42.710;27.258;2023-05-10T13:12:09;2.67;;;1.67;;
12348;SDS011;5974;42.710;27.258;2023-05-10T13:14:36;2.00;;;1.90;;
12348;SDS011;5974;42.710;27.258;2023-05-10T13:17:05;2.60;;;1.80;;
12348;SDS011;5974;42.710;27.258;2023-05-10T13:19:33;2.60;;;1.70;;
12348;SDS011;5974;42.710;27.258;2023-05-10T13:22:00;2.47;;;1.70;;
12348;SDS011;5974;42.710;27.258;2023-05-10T13:24:29;4.20;;;2.00;;
12348;SDS011;5974;42.710;27.258;2023-05-10T13:26:55;2.13;;;1.83;;
12348;SDS011;5974;42.710;27.258;2023-05-10T13:29:22;3.87;;;2.33;;
12348;SDS011;5974;42.710;27.258;2023-05-10T13:31:49;1.90;;;1.80;;
12348;SDS011;5974;42.710;27.258;2023-05-10T13:34:16;4.10;;;1.90;;
12348;SDS011;5974;42.710;27.258;2023-05-10T13:36:47;3.30;;;1.70;;
12348;SDS011;5974;42.710;27.258;2023-05-10T13:39:14;4.10;;;1.87;;
12348;SDS011;5974;42.710;27.258;2023-05-10T13:41:41;1.73;;;1.63;;
12348;SDS011;5974;42.710;27.258;2023-05-10T13:44:08;1.60;;;1.50;;
12348;SDS011;5974;42.710;27.258;2023-05-10T13:46:37;4.50;;;1.90;;
12348;SDS011;5974;42.710;27.258;2023-05-10T13:49:04;3.10;;;1.90;;
12348;SDS011;5974;42.710;27.258;2023-05-10T13:51:31;2.30;;;1.83;;
12348;SDS011;5974;42.710;27.258;2023-05-10T13:53:59;3.27;;;2.00;;
12348;SDS011;5974;42.710;27.258;2023-05-10T13:56:26;1.87;;;1.77;;
12348;SDS011;5974;42.710;27.258;2023-05-10T13:58:53;1.87;;;1.70;;
12348;SDS011;5974;42.710;27.258;2023-05-10T14:01:19;1.73;;;1.63;;
12348;SDS011;5974;42.710;27.258;2023-05-10T14:03:46;2.53;;;2.13;;
12348;SDS011;5974;42.710;27.258;2023-05-10T14:06:13;1.90;;;1.80;;
12348;SDS011;5974;42.710;27.258;2023-05-10T14:08:40;2.97;;;1.80;;
12348;SDS011;5974;42.710;27.258;2023-05-10T14:11:09;2.13;;;1.70;;
12348;SDS011;5974;42.710;27.258;2023-05-10T14:13:36;2.23;;;2.00;;
12348;SDS011;5974;42.710;27.258;2023-05-10T14:16:03;1.67;;;1.57;;
12348;SDS011;5974;42.710;27.258;2023-05-10T14:18:30;1.87;;;1.63;;
12348;SDS011;5974;42.710;27.258;2023-05-10T14:20:57;2.30;;;2.10;;
12348;SDS011;5974;42.710;27.258;2023-05-10T14:23:24;2.77;;;2.00;;
12348;SDS011;5974;42.710;27.258;2023-05-10T14:25:53;2.80;;;2.10;;
12348;SDS011;5974;42.710;27.258;2023-05-10T14:28:22;2.70;;;1.77;;
12348;SDS011;5974;42.710;27.258;2023-05-10T14:30:50;2.67;;;1.60;;
12348;SDS011;5974;42.710;27.258;2023-05-10T14:33:18;4.40;;;1.57;;
12348;SDS011;5974;42.710;27.258;2023-05-10T14:35:45;2.10;;;1.87;;
12348;SDS011;5974;42.710;27.258;2023-05-10T14:38:13;2.30;;;1.60;;
12348;SDS011;5974;42.710;27.258;2023-05-10T14:40:40;2.80;;;1.63;;
12348;SDS011;5974;42.710;27.258;2023-05-10T14:43:07;1.80;;;1.70;;
12348;SDS011;5974;42.710;27.258;2023-05-10T14:45:35;1.90;;;1.60;;
12348;SDS011;5974;42.710;27.258;2023-05-10T14:48:02;1.40;;;1.40;;
12348;SDS011;5974;42.710;27.258;2023-05-10T14:50:29;3.03;;;1.50;;
12348;SDS011;5974;42.710;27.258;2023-05-10T14:52:57;1.83;;;1.60;;
12348;SDS011;5974;42.710;27.258;2023-05-10T14:55:24;2.50;;;2.00;;
12348;SDS011;5974;42.710;27.258;2023-05-10T14:57:51;1.60;;;1.50;;
12348;SDS011;5974;42.710;27.258;2023-05-10T15:00:19;2.13;;;1.70;;
12348;SDS011;5974;42.710;27.258;2023-05-10T15:02:49;3.17;;;1.90;;
12348;SDS011;5974;42.710;27.258;2023-05-10T15:05:15;4.70;;;2.00;;